Airport View

Enter AWOS ICAO identifier for current METAR.

ex. KFNL

PAKT 192200Z 15009KT 10SM SCT027 BKN110 08/06 A2971

19 Oct 2019 23:09

Frequency: 134.45

Phone: 907-247-8801

Other Area AWOS: PAMM - PANT - PAHY - PAKW

TAF PAKT 191742Z 1918/2018 13008KT P6SM -SHRA SCT018 OVC025 FM200900 14011KT P6SM -RA OVC050 AMD LTD TO CLD VIS AND WIND 2006/2015